createdAt,value
2022-11-17T00:01:26.588Z,0.52
2022-11-17T00:03:54.989Z,0.30
2022-11-17T00:06:23.358Z,0.60
2022-11-17T00:08:53.550Z,0.20
2022-11-17T00:11:21.970Z,0.40
2022-11-17T00:14:07.950Z,0.40
2022-11-17T00:16:37.722Z,0.50
2022-11-17T00:19:38.266Z,0.30
2022-11-17T00:22:06.611Z,0.38
2022-11-17T00:24:35.171Z,0.45
2022-11-17T00:27:03.634Z,0.30
2022-11-17T00:29:32.497Z,0.30
2022-11-17T00:32:20.322Z,0.30
2022-11-17T00:34:48.717Z,0.32
2022-11-17T00:37:17.952Z,0.30
2022-11-17T00:39:46.435Z,0.20
2022-11-17T00:42:14.816Z,0.30
2022-11-17T00:44:43.308Z,0.25
2022-11-17T00:47:13.114Z,0.32
2022-11-17T00:49:41.526Z,0.30
2022-11-17T00:52:10.903Z,0.20
2022-11-17T00:54:39.225Z,0.25
2022-11-17T00:57:07.595Z,0.30
2022-11-17T00:59:35.952Z,0.30
2022-11-17T01:02:04.900Z,0.40
2022-11-17T01:04:35.211Z,0.20
2022-11-17T01:07:03.871Z,0.30
2022-11-17T01:09:32.505Z,0.30
2022-11-17T01:12:00.893Z,0.30
2022-11-17T01:14:32.568Z,0.30
2022-11-17T01:17:01.048Z,0.30
2022-11-17T01:19:29.597Z,0.20
2022-11-17T01:21:59.387Z,0.20
2022-11-17T01:24:27.925Z,0.20
2022-11-17T01:26:56.320Z,0.28
2022-11-17T01:29:24.740Z,0.20
2022-11-17T01:31:53.537Z,0.20
2022-11-17T01:34:22.319Z,0.20
2022-11-17T01:37:13.812Z,0.20
2022-11-17T01:39:44.111Z,0.30
2022-11-17T01:42:15.425Z,0.25
2022-11-17T01:44:59.238Z,0.20
2022-11-17T01:47:33.835Z,0.30
2022-11-17T01:50:07.752Z,0.30
2022-11-17T01:52:39.020Z,0.20
2022-11-17T01:55:11.039Z,0.20
2022-11-17T01:57:43.655Z,0.22
2022-11-17T02:00:13.863Z,0.25
2022-11-17T02:02:44.553Z,0.20
2022-11-17T02:05:31.307Z,0.20
2022-11-17T02:08:04.922Z,0.20
2022-11-17T02:10:36.847Z,0.20
2022-11-17T02:13:05.981Z,0.20
2022-11-17T02:15:34.373Z,0.30
2022-11-17T02:18:03.388Z,0.20
2022-11-17T02:20:51.216Z,0.30
2022-11-17T02:23:39.235Z,0.22
2022-11-17T02:26:45.206Z,0.30
2022-11-17T02:29:22.334Z,0.30
2022-11-17T02:31:59.220Z,0.30
2022-11-17T02:34:35.430Z,0.30
2022-11-17T02:37:10.938Z,0.40
2022-11-17T02:39:48.085Z,0.30
2022-11-17T02:42:41.914Z,0.50
2022-11-17T02:45:15.623Z,0.30
2022-11-17T02:47:49.109Z,0.40
2022-11-17T02:50:26.728Z,0.30
2022-11-17T02:52:57.165Z,0.40
2022-11-17T02:55:25.719Z,0.38
2022-11-17T02:57:54.134Z,0.38
2022-11-17T03:00:24.052Z,0.30
2022-11-17T03:03:10.292Z,0.50
2022-11-17T03:05:47.638Z,0.30
2022-11-17T03:08:31.603Z,0.38
2022-11-17T03:11:03.703Z,0.40
2022-11-17T03:13:44.913Z,0.40
2022-11-17T03:16:24.033Z,0.50
2022-11-17T03:19:05.102Z,0.50
2022-11-17T03:21:39.199Z,0.40
2022-11-17T03:24:13.284Z,0.50
2022-11-17T03:26:47.360Z,0.50
2022-11-17T03:29:20.152Z,0.50
2022-11-17T03:31:54.397Z,0.47
2022-11-17T03:34:25.451Z,0.50
2022-11-17T03:36:59.669Z,0.60
2022-11-17T03:39:32.632Z,0.80
2022-11-17T03:42:06.335Z,0.68
2022-11-17T03:44:39.119Z,0.70
2022-11-17T03:47:12.650Z,0.80
2022-11-17T03:49:46.128Z,0.90
2022-11-17T03:52:14.695Z,0.93
2022-11-17T03:54:43.332Z,0.80
2022-11-17T03:57:19.007Z,1.88
2022-11-17T03:59:54.923Z,0.90
2022-11-17T04:02:25.986Z,0.70
2022-11-17T04:05:06.869Z,0.93
2022-11-17T04:07:36.528Z,0.90
2022-11-17T04:10:06.673Z,0.90
2022-11-17T04:12:52.945Z,0.95
2022-11-17T04:15:52.356Z,0.82
2022-11-17T04:18:22.944Z,0.75
2022-11-17T04:20:52.427Z,0.85
2022-11-17T04:23:21.757Z,1.00
2022-11-17T04:26:10.220Z,1.17
2022-11-17T04:28:41.257Z,0.95
2022-11-17T04:31:12.834Z,0.93
2022-11-17T04:33:44.587Z,0.90
2022-11-17T04:36:15.293Z,0.77
2022-11-17T04:38:44.805Z,1.17
2022-11-17T04:41:31.991Z,0.80
2022-11-17T04:44:01.608Z,1.10
2022-11-17T04:46:31.443Z,0.85
2022-11-17T04:49:02.163Z,1.45
2022-11-17T04:51:31.763Z,1.27
2022-11-17T04:54:01.074Z,1.02
2022-11-17T04:56:29.911Z,0.80
2022-11-17T04:58:59.065Z,0.80
2022-11-17T05:01:28.847Z,0.60
2022-11-17T05:03:58.309Z,0.93
2022-11-17T05:06:29.681Z,0.60
2022-11-17T05:08:58.067Z,0.57
2022-11-17T05:11:45.849Z,0.85
2022-11-17T05:14:16.518Z,0.57
2022-11-17T05:17:08.476Z,0.70
2022-11-17T05:19:39.226Z,0.60
2022-11-17T05:22:23.951Z,0.40
2022-11-17T05:24:52.295Z,0.63
2022-11-17T05:27:21.166Z,0.60
2022-11-17T05:29:49.560Z,0.60
2022-11-17T05:32:18.047Z,0.60
2022-11-17T05:34:46.551Z,0.57
2022-11-17T05:37:16.298Z,0.50
2022-11-17T05:39:45.348Z,0.40
2022-11-17T05:42:13.748Z,0.43
2022-11-17T05:44:42.125Z,0.40
2022-11-17T05:47:13.271Z,0.40
2022-11-17T05:49:41.803Z,0.55
2022-11-17T05:52:10.384Z,0.50
2022-11-17T05:54:40.085Z,0.43
2022-11-17T05:57:13.314Z,0.40
2022-11-17T05:59:47.355Z,0.57
2022-11-17T06:02:19.800Z,0.60
2022-11-17T06:04:50.364Z,0.60
2022-11-17T06:07:20.468Z,0.43
2022-11-17T06:09:52.040Z,0.40
2022-11-17T06:12:20.455Z,0.60
2022-11-17T06:14:48.888Z,0.47
2022-11-17T06:17:23.599Z,0.57
2022-11-17T06:19:57.402Z,0.60
2022-11-17T06:22:27.585Z,0.50
2022-11-17T06:24:58.356Z,0.60
2022-11-17T06:27:27.612Z,0.60
2022-11-17T06:29:58.778Z,0.60
2022-11-17T06:32:28.634Z,0.47
2022-11-17T06:34:57.898Z,0.60
2022-11-17T06:37:26.510Z,0.50
2022-11-17T06:39:55.295Z,0.68
2022-11-17T06:42:45.037Z,0.65
2022-11-17T06:45:13.601Z,0.40
2022-11-17T06:47:42.113Z,0.65
2022-11-17T06:50:11.505Z,0.40
2022-11-17T06:52:39.958Z,0.40
2022-11-17T06:55:09.659Z,0.65
2022-11-17T06:57:39.494Z,0.40
2022-11-17T07:00:09.397Z,0.60
2022-11-17T07:02:37.942Z,0.40
2022-11-17T07:05:06.932Z,0.50
2022-11-17T07:07:38.100Z,0.50
2022-11-17T07:10:07.431Z,0.40
2022-11-17T07:12:35.906Z,0.40
2022-11-17T07:15:06.611Z,0.57
2022-11-17T07:17:35.012Z,0.50
2022-11-17T07:20:04.022Z,0.52
2022-11-17T07:22:32.507Z,0.40
2022-11-17T07:25:00.841Z,0.50
2022-11-17T07:27:30.481Z,0.40
2022-11-17T07:29:59.195Z,0.40
2022-11-17T07:32:29.084Z,0.60
2022-11-17T07:35:00.883Z,0.40
2022-11-17T07:37:33.340Z,0.50
2022-11-17T07:40:01.897Z,0.47
2022-11-17T07:42:31.813Z,0.60
2022-11-17T07:45:00.146Z,0.52
2022-11-17T07:47:29.879Z,0.60
2022-11-17T07:49:58.244Z,0.60
2022-11-17T07:52:26.725Z,0.50
2022-11-17T07:54:55.072Z,0.52
2022-11-17T07:57:24.926Z,0.50
2022-11-17T07:59:54.596Z,0.30
2022-11-17T08:02:22.982Z,0.43
2022-11-17T08:04:52.711Z,0.50
2022-11-17T08:07:21.229Z,0.75
2022-11-17T08:09:49.650Z,0.50
2022-11-17T08:12:18.007Z,0.30
2022-11-17T08:14:46.446Z,0.43
2022-11-17T08:17:14.980Z,0.63
2022-11-17T08:19:43.339Z,0.40
2022-11-17T08:22:15.329Z,0.50
2022-11-17T08:24:43.804Z,0.65
2022-11-17T08:27:12.600Z,0.40
2022-11-17T08:29:41.046Z,0.40
2022-11-17T08:32:09.473Z,0.30
2022-11-17T08:34:38.038Z,0.38
2022-11-17T08:37:06.478Z,0.40
2022-11-17T08:39:36.291Z,0.70
2022-11-17T08:42:04.901Z,0.30
2022-11-17T08:44:33.248Z,0.40
2022-11-17T08:47:01.737Z,0.40
2022-11-17T08:49:33.188Z,0.40
2022-11-17T08:52:01.607Z,0.30
2022-11-17T08:54:29.963Z,0.30
2022-11-17T08:57:01.473Z,0.30
2022-11-17T08:59:29.919Z,0.40
2022-11-17T09:01:58.334Z,0.22
2022-11-17T09:04:26.944Z,0.30
2022-11-17T09:06:55.411Z,0.40
2022-11-17T09:09:25.213Z,0.30
2022-11-17T09:11:54.034Z,0.40
2022-11-17T09:14:23.801Z,0.28
2022-11-17T09:16:52.280Z,0.30
2022-11-17T09:19:20.742Z,0.28
2022-11-17T09:21:49.321Z,0.30
2022-11-17T09:24:17.665Z,0.40
2022-11-17T09:26:46.036Z,0.30
2022-11-17T09:29:14.969Z,0.30
2022-11-17T09:31:44.720Z,0.30
2022-11-17T09:34:13.140Z,0.47
2022-11-17T09:36:42.054Z,0.40
2022-11-17T09:39:10.624Z,0.40
2022-11-17T09:41:43.295Z,0.50
2022-11-17T09:44:29.586Z,0.30
2022-11-17T09:47:07.398Z,0.40
2022-11-17T09:49:44.601Z,0.40
2022-11-17T09:52:19.728Z,0.30
2022-11-17T09:54:53.816Z,0.47
2022-11-17T09:57:38.887Z,0.40
2022-11-17T10:00:15.115Z,0.40
2022-11-17T10:02:45.908Z,0.30
2022-11-17T10:05:16.183Z,0.45
2022-11-17T10:07:50.220Z,0.30
2022-11-17T10:10:23.573Z,0.40
2022-11-17T10:12:56.837Z,0.25
2022-11-17T10:15:30.367Z,0.30
2022-11-17T10:18:00.118Z,0.30
2022-11-17T10:20:28.713Z,0.30
2022-11-17T10:22:58.233Z,0.40
2022-11-17T10:25:38.893Z,0.22
2022-11-17T10:28:08.723Z,0.30
2022-11-17T10:30:37.277Z,0.40
2022-11-17T10:33:07.325Z,0.30
2022-11-17T10:35:36.821Z,0.47
2022-11-17T10:38:14.196Z,0.30
2022-11-17T10:40:49.710Z,0.40
2022-11-17T10:43:24.497Z,0.40
2022-11-17T10:45:56.070Z,0.30
2022-11-17T10:48:29.582Z,0.40
2022-11-17T10:50:59.620Z,0.40
2022-11-17T10:53:41.349Z,0.40
2022-11-17T10:56:16.946Z,1.08
2022-11-17T10:59:05.049Z,0.40
2022-11-17T11:01:35.988Z,0.60
2022-11-17T11:04:08.092Z,0.88
2022-11-17T11:06:37.401Z,0.40
2022-11-17T11:09:12.672Z,0.30
2022-11-17T11:11:46.155Z,0.32
2022-11-17T11:14:23.082Z,0.40
2022-11-17T11:16:52.163Z,0.65
2022-11-17T11:19:22.674Z,0.35
2022-11-17T11:22:14.653Z,0.50
2022-11-17T11:24:56.020Z,0.40
2022-11-17T11:27:48.677Z,0.47
2022-11-17T11:30:19.536Z,0.40
2022-11-17T11:33:02.066Z,0.40
2022-11-17T11:35:52.803Z,0.40
2022-11-17T11:38:40.935Z,0.50
2022-11-17T11:41:32.855Z,0.38
2022-11-17T11:44:20.123Z,0.40
2022-11-17T11:46:57.797Z,0.30
2022-11-17T11:49:35.954Z,0.60
2022-11-17T11:52:11.306Z,0.40
2022-11-17T11:54:50.574Z,0.47
2022-11-17T11:57:27.992Z,0.35
2022-11-17T12:00:04.114Z,0.40
2022-11-17T12:02:43.612Z,0.50
2022-11-17T12:05:23.030Z,0.47
2022-11-17T12:07:58.287Z,0.70
2022-11-17T12:10:32.803Z,0.40
2022-11-17T12:13:02.112Z,0.35
2022-11-17T12:15:37.731Z,0.50
2022-11-17T12:18:12.660Z,0.43
2022-11-17T12:21:02.542Z,0.47
2022-11-17T12:23:43.599Z,0.40
2022-11-17T12:26:23.472Z,0.38
2022-11-17T12:29:27.952Z,0.57
2022-11-17T12:31:57.693Z,0.40
2022-11-17T12:34:28.872Z,0.55
2022-11-17T12:37:30.400Z,0.57
2022-11-17T12:40:05.733Z,0.50
2022-11-17T12:42:35.564Z,0.63
2022-11-17T12:45:07.012Z,0.77
2022-11-17T12:47:38.622Z,0.50
2022-11-17T12:50:31.998Z,0.50
2022-11-17T12:53:17.084Z,0.50
2022-11-17T12:56:14.537Z,0.70
2022-11-17T12:58:53.444Z,0.57
2022-11-17T13:01:30.001Z,0.43
2022-11-17T13:04:02.525Z,0.52
2022-11-17T13:06:36.053Z,0.50
2022-11-17T13:09:07.387Z,0.73
2022-11-17T13:11:37.445Z,0.85
2022-11-17T13:14:11.821Z,0.65
2022-11-17T13:16:46.252Z,0.77
2022-11-17T13:19:36.498Z,1.52
2022-11-17T13:22:07.703Z,0.75
2022-11-17T13:24:38.024Z,0.50
2022-11-17T13:27:19.881Z,0.68
2022-11-17T13:29:48.473Z,0.52
2022-11-17T13:32:20.131Z,0.60
2022-11-17T13:34:51.784Z,0.60
2022-11-17T13:37:22.670Z,0.50
2022-11-17T13:39:55.424Z,0.63
2022-11-17T13:42:27.960Z,0.50
2022-11-17T13:44:59.309Z,0.50
2022-11-17T13:47:41.030Z,0.50
2022-11-17T13:50:23.890Z,0.43
2022-11-17T13:52:56.902Z,0.60
2022-11-17T13:55:29.991Z,0.60
2022-11-17T13:58:04.414Z,0.45
2022-11-17T14:00:36.285Z,0.60
2022-11-17T14:03:07.049Z,0.52
2022-11-17T14:05:37.207Z,0.77
2022-11-17T14:08:14.242Z,0.50
2022-11-17T14:10:42.746Z,0.60
2022-11-17T14:13:23.832Z,0.73
2022-11-17T14:15:57.059Z,0.60
2022-11-17T14:18:36.747Z,0.68
2022-11-17T14:21:07.510Z,0.60
2022-11-17T14:23:36.526Z,0.60
2022-11-17T14:26:08.479Z,0.47
2022-11-17T14:28:38.320Z,0.60
2022-11-17T14:31:07.206Z,0.95
2022-11-17T14:33:35.684Z,0.47
2022-11-17T14:36:06.235Z,0.70
2022-11-17T14:38:34.751Z,0.55
2022-11-17T14:41:03.293Z,1.02
2022-11-17T14:43:32.458Z,0.50
2022-11-17T14:46:02.667Z,0.50
2022-11-17T14:48:31.243Z,0.60
2022-11-17T14:51:01.235Z,0.50
2022-11-17T14:53:29.727Z,0.50
2022-11-17T14:55:58.233Z,0.52
2022-11-17T14:58:26.749Z,0.68
2022-11-17T15:00:55.199Z,0.50
2022-11-17T15:03:25.168Z,0.60
2022-11-17T15:05:53.739Z,0.80
2022-11-17T15:08:22.176Z,0.75
2022-11-17T15:10:52.352Z,0.60
2022-11-17T15:13:20.916Z,0.60
2022-11-17T15:15:49.440Z,0.60
2022-11-17T15:18:17.968Z,0.60
2022-11-17T15:20:47.953Z,0.63
2022-11-17T15:23:16.579Z,0.43
2022-11-17T15:25:45.088Z,0.68
2022-11-17T15:28:18.947Z,0.50
2022-11-17T15:30:50.008Z,0.60
2022-11-17T15:33:18.636Z,0.70
2022-11-17T15:35:48.598Z,0.70
2022-11-17T15:38:17.153Z,0.80
2022-11-17T15:40:45.683Z,0.60
2022-11-17T15:43:14.313Z,0.93
2022-11-17T15:45:43.028Z,0.60
2022-11-17T15:48:17.551Z,0.50
2022-11-17T15:50:48.820Z,0.80
2022-11-17T15:53:17.324Z,0.60
2022-11-17T15:55:45.827Z,0.52
2022-11-17T15:58:16.009Z,0.55
2022-11-17T16:00:44.645Z,0.60
2022-11-17T16:03:13.541Z,0.50
2022-11-17T16:05:42.084Z,0.50
2022-11-17T16:08:17.191Z,0.45
2022-11-17T16:11:06.727Z,0.55
2022-11-17T16:13:38.970Z,0.63
2022-11-17T16:16:08.727Z,0.50
2022-11-17T16:18:38.970Z,0.43
2022-11-17T16:21:22.939Z,0.70
2022-11-17T16:23:54.761Z,0.47
2022-11-17T16:26:28.975Z,0.70
2022-11-17T16:28:58.804Z,0.77
2022-11-17T16:31:29.509Z,0.70
2022-11-17T16:33:59.550Z,0.57
2022-11-17T16:36:36.286Z,0.68
2022-11-17T16:39:08.570Z,0.50
2022-11-17T16:41:39.148Z,0.57
2022-11-17T16:44:09.178Z,0.77
2022-11-17T16:46:37.727Z,0.60
2022-11-17T16:49:07.904Z,0.50
2022-11-17T16:51:36.982Z,0.68
2022-11-17T16:54:08.739Z,0.80
2022-11-17T16:56:37.138Z,0.80
2022-11-17T16:59:11.531Z,0.70
2022-11-17T17:01:42.886Z,0.63
2022-11-17T17:04:13.064Z,0.68
2022-11-17T17:06:42.822Z,0.68
2022-11-17T17:09:14.777Z,0.80
2022-11-17T17:11:47.045Z,0.70
2022-11-17T17:14:16.899Z,0.63
2022-11-17T17:16:45.519Z,0.73
2022-11-17T17:19:16.265Z,0.70
2022-11-17T17:21:45.460Z,0.70
2022-11-17T17:24:15.187Z,0.77
2022-11-17T17:26:43.825Z,1.63
2022-11-17T17:29:13.415Z,0.55
2022-11-17T17:31:43.523Z,0.90
2022-11-17T17:34:13.709Z,0.63
2022-11-17T17:36:42.549Z,1.02
2022-11-17T17:39:14.500Z,0.80
2022-11-17T17:41:46.014Z,0.80
2022-11-17T17:44:16.452Z,0.90
2022-11-17T17:46:45.695Z,1.00
2022-11-17T17:49:14.790Z,1.10
2022-11-17T17:51:44.663Z,0.88
2022-11-17T17:54:17.152Z,1.10
2022-11-17T17:56:47.849Z,1.10
2022-11-17T17:59:17.328Z,1.20
2022-11-17T18:01:47.598Z,1.02
2022-11-17T18:04:17.357Z,1.20
2022-11-17T18:06:48.403Z,1.23
2022-11-17T18:09:20.453Z,0.95
2022-11-17T18:11:53.404Z,1.27
2022-11-17T18:14:24.348Z,1.10
2022-11-17T18:16:54.132Z,1.25
2022-11-17T18:19:28.297Z,1.23
2022-11-17T18:22:00.179Z,0.90
2022-11-17T18:24:28.612Z,0.90
2022-11-17T18:26:58.466Z,0.90
2022-11-17T18:29:29.621Z,1.02
2022-11-17T18:31:58.219Z,1.05
2022-11-17T18:34:27.146Z,1.30
2022-11-17T18:36:56.796Z,1.17
2022-11-17T18:39:32.162Z,1.30
2022-11-17T18:42:02.174Z,1.10
2022-11-17T18:44:31.547Z,1.42
2022-11-17T18:47:03.005Z,1.00
2022-11-17T18:49:34.543Z,1.38
2022-11-17T18:52:03.514Z,1.20
2022-11-17T18:54:32.143Z,1.20
2022-11-17T18:57:07.559Z,1.00
2022-11-17T18:59:36.335Z,1.17
2022-11-17T19:02:05.298Z,1.67
2022-11-17T19:04:34.116Z,1.20
2022-11-17T19:07:02.693Z,1.00
2022-11-17T19:09:32.318Z,1.13
2022-11-17T19:12:05.693Z,1.60
2022-11-17T19:14:45.696Z,1.20
2022-11-17T19:17:14.144Z,1.10
2022-11-17T19:19:42.618Z,1.20
2022-11-17T19:22:11.232Z,1.60
2022-11-17T19:24:40.791Z,1.10
2022-11-17T19:27:11.776Z,0.93
2022-11-17T19:29:41.691Z,1.33
2022-11-17T19:32:10.445Z,1.10
2022-11-17T19:34:39.030Z,1.02
2022-11-17T19:37:07.631Z,1.15
2022-11-17T19:39:37.121Z,1.20
2022-11-17T19:42:05.889Z,1.20
2022-11-17T19:44:36.235Z,0.90
2022-11-17T19:47:07.390Z,0.85
2022-11-17T19:49:35.993Z,1.13
2022-11-17T19:52:04.832Z,0.90
2022-11-17T19:54:33.301Z,1.15
2022-11-17T19:57:01.998Z,1.40
2022-11-17T19:59:32.359Z,1.10
2022-11-17T20:02:02.683Z,1.10
2022-11-17T20:04:31.215Z,1.20
2022-11-17T20:07:00.780Z,0.93
2022-11-17T20:09:29.684Z,1.10
2022-11-17T20:11:58.496Z,0.98
2022-11-17T20:14:27.736Z,1.30
2022-11-17T20:16:56.511Z,0.98
2022-11-17T20:19:26.602Z,1.20
2022-11-17T20:21:55.267Z,1.20
2022-11-17T20:24:23.711Z,1.13
2022-11-17T20:26:53.519Z,1.00
2022-11-17T20:29:22.212Z,1.10
2022-11-17T20:31:51.359Z,1.23
2022-11-17T20:34:20.086Z,1.13
2022-11-17T20:36:50.164Z,1.15
2022-11-17T20:39:18.978Z,1.10
2022-11-17T20:41:47.584Z,1.33
2022-11-17T20:44:24.644Z,1.20
2022-11-17T20:46:54.804Z,1.20
2022-11-17T20:49:42.941Z,1.30
2022-11-17T20:52:13.688Z,1.00
2022-11-17T20:54:42.406Z,1.00
2022-11-17T20:57:10.875Z,1.10
2022-11-17T20:59:39.307Z,1.50
2022-11-17T21:02:07.679Z,1.40
2022-11-17T21:04:37.747Z,1.30
2022-11-17T21:07:06.343Z,1.20
2022-11-17T21:09:36.189Z,1.02
2022-11-17T21:12:04.972Z,1.00
2022-11-17T21:14:33.581Z,1.23
2022-11-17T21:17:02.535Z,1.15
2022-11-17T21:19:33.246Z,1.73
2022-11-17T21:22:04.041Z,1.20
2022-11-17T21:24:32.513Z,1.38
2022-11-17T21:27:02.231Z,1.42
2022-11-17T21:29:30.785Z,1.08
2022-11-17T21:31:59.236Z,1.25
2022-11-17T21:34:27.676Z,1.02
2022-11-17T21:36:56.213Z,1.00
2022-11-17T21:39:24.570Z,1.10
2022-11-17T21:41:53.086Z,0.80
2022-11-17T21:44:22.884Z,0.90
2022-11-17T21:46:51.313Z,1.15
2022-11-17T21:49:19.781Z,1.23
2022-11-17T21:51:48.157Z,1.15
2022-11-17T21:54:16.843Z,1.00
2022-11-17T21:56:46.030Z,1.35
2022-11-17T21:59:16.411Z,1.13
2022-11-17T22:01:46.374Z,1.20
2022-11-17T22:04:15.704Z,1.00
2022-11-17T22:06:44.082Z,0.93
2022-11-17T22:09:12.746Z,1.13
2022-11-17T22:11:41.160Z,0.90
2022-11-17T22:14:11.676Z,0.98
2022-11-17T22:16:41.587Z,1.02
2022-11-17T22:19:12.638Z,0.77
2022-11-17T22:21:41.737Z,1.20
2022-11-17T22:24:12.123Z,0.80
2022-11-17T22:26:42.262Z,1.05
2022-11-17T22:29:14.324Z,1.10
2022-11-17T22:31:44.000Z,0.93
2022-11-17T22:34:14.485Z,0.80
2022-11-17T22:36:43.184Z,0.88
2022-11-17T22:39:11.551Z,1.10
2022-11-17T22:41:40.265Z,1.10
2022-11-17T22:44:08.924Z,0.95
2022-11-17T22:46:37.477Z,1.10
2022-11-17T22:49:05.829Z,1.20
2022-11-17T22:51:52.901Z,1.00
2022-11-17T22:54:21.431Z,1.00
2022-11-17T22:56:50.342Z,1.00
2022-11-17T22:59:19.663Z,1.10
2022-11-17T23:01:48.250Z,1.00
2022-11-17T23:04:17.271Z,1.10
2022-11-17T23:07:05.865Z,1.35
2022-11-17T23:09:34.295Z,1.10
2022-11-17T23:12:02.732Z,1.20
2022-11-17T23:14:31.085Z,1.10
2022-11-17T23:16:59.425Z,1.02
2022-11-17T23:19:27.769Z,1.40
2022-11-17T23:21:56.160Z,1.70
2022-11-17T23:24:27.970Z,1.45
2022-11-17T23:26:56.411Z,1.10
2022-11-17T23:29:24.756Z,1.38
2022-11-17T23:31:53.260Z,1.40
2022-11-17T23:34:21.727Z,1.30
2022-11-17T23:36:50.319Z,1.30
2022-11-17T23:39:19.205Z,1.10
2022-11-17T23:41:49.007Z,1.25
2022-11-17T23:44:17.416Z,1.45
2022-11-17T23:46:45.787Z,1.27
2022-11-17T23:49:14.602Z,1.05
2022-11-17T23:51:43.231Z,1.20
2022-11-17T23:54:12.642Z,1.20
2022-11-17T23:56:41.517Z,1.80
2022-11-17T23:59:11.542Z,1.08
